sensor_id;sensor_type;location;lat;lon;timestamp;pressure;altitude;pressure_sealevel;temperature;humidity
20145;BME280;10233;50.814;6.590;2024-01-25T00:00:26;101431.41;;;9.77;100.00
20145;BME280;10233;50.814;6.590;2024-01-25T00:01:27;101432.22;;;9.78;100.00
20145;BME280;10233;50.814;6.590;2024-01-25T00:02:27;101439.22;;;9.79;100.00
20145;BME280;10233;50.814;6.590;2024-01-25T00:03:27;101435.72;;;9.78;100.00
20145;BME280;10233;50.814;6.590;2024-01-25T00:04:28;101438.19;;;9.80;100.00
20145;BME280;10233;50.814;6.590;2024-01-25T00:05:28;101438.38;;;9.78;100.00
20145;BME280;10233;50.814;6.590;2024-01-25T00:06:29;101444.00;;;9.75;100.00
20145;BME280;10233;50.814;6.590;2024-01-25T00:07:30;101444.84;;;9.76;100.00
20145;BME280;10233;50.814;6.590;2024-01-25T00:08:30;101438.69;;;9.75;100.00
20145;BME280;10233;50.814;6.590;2024-01-25T00:09:30;101429.75;;;9.76;100.00
20145;BME280;10233;50.814;6.590;2024-01-25T00:10:31;101432.56;;;9.75;100.00
20145;BME280;10233;50.814;6.590;2024-01-25T00:11:31;101425.25;;;9.77;100.00
20145;BME280;10233;50.814;6.590;2024-01-25T00:12:32;101430.06;;;9.73;100.00
20145;BME280;10233;50.814;6.590;2024-01-25T00:13:32;101435.38;;;9.73;100.00
20145;BME280;10233;50.814;6.590;2024-01-25T00:14:33;101437.38;;;9.71;100.00
20145;BME280;10233;50.814;6.590;2024-01-25T00:15:33;101439.19;;;9.71;100.00
20145;BME280;10233;50.814;6.590;2024-01-25T00:16:34;101452.47;;;9.71;100.00
20145;BME280;10233;50.814;6.590;2024-01-25T00:17:34;101443.66;;;9.70;100.00
20145;BME280;10233;50.814;6.590;2024-01-25T00:18:35;101432.72;;;9.73;100.00
20145;BME280;10233;50.814;6.590;2024-01-25T00:19:35;101440.69;;;9.73;100.00
20145;BME280;10233;50.814;6.590;2024-01-25T00:20:36;101433.22;;;9.77;100.00
20145;BME280;10233;50.814;6.590;2024-01-25T00:21:41;101423.75;;;9.74;100.00
20145;BME280;10233;50.814;6.590;2024-01-25T00:22:42;101435.38;;;9.73;100.00
20145;BME280;10233;50.814;6.590;2024-01-25T00:23:42;101426.78;;;9.71;100.00
20145;BME280;10233;50.814;6.590;2024-01-25T00:24:43;101432.06;;;9.71;100.00
20145;BME280;10233;50.814;6.590;2024-01-25T00:25:43;101427.09;;;9.68;100.00
20145;BME280;10233;50.814;6.590;2024-01-25T00:26:44;101426.09;;;9.69;100.00
20145;BME280;10233;50.814;6.590;2024-01-25T00:27:44;101426.91;;;9.62;100.00
20145;BME280;10233;50.814;6.590;2024-01-25T00:28:45;101437.53;;;9.62;100.00
20145;BME280;10233;50.814;6.590;2024-01-25T00:29:45;101427.28;;;9.59;100.00
20145;BME280;10233;50.814;6.590;2024-01-25T00:30:46;101429.25;;;9.57;100.00
20145;BME280;10233;50.814;6.590;2024-01-25T00:31:46;101433.06;;;9.54;100.00
20145;BME280;10233;50.814;6.590;2024-01-25T00:32:48;101436.56;;;9.55;100.00
20145;BME280;10233;50.814;6.590;2024-01-25T00:33:48;101427.91;;;9.53;100.00
20145;BME280;10233;50.814;6.590;2024-01-25T00:34:49;101435.88;;;9.53;100.00
20145;BME280;10233;50.814;6.590;2024-01-25T00:35:50;101434.06;;;9.53;100.00
20145;BME280;10233;50.814;6.590;2024-01-25T00:36:50;101425.94;;;9.55;100.00
20145;BME280;10233;50.814;6.590;2024-01-25T00:37:51;101429.41;;;9.47;100.00
20145;BME280;10233;50.814;6.590;2024-01-25T00:38:53;101431.06;;;9.48;100.00
20145;BME280;10233;50.814;6.590;2024-01-25T00:39:53;101432.06;;;9.47;100.00
20145;BME280;10233;50.814;6.590;2024-01-25T00:40:54;101425.09;;;9.46;100.00
20145;BME280;10233;50.814;6.590;2024-01-25T00:42:03;101420.44;;;9.48;100.00
20145;BME280;10233;50.814;6.590;2024-01-25T00:43:05;101423.75;;;9.50;100.00
20145;BME280;10233;50.814;6.590;2024-01-25T00:44:06;101431.06;;;9.48;100.00
20145;BME280;10233;50.814;6.590;2024-01-25T00:45:07;101430.56;;;9.45;100.00
20145;BME280;10233;50.814;6.590;2024-01-25T00:46:08;101432.72;;;9.49;100.00
20145;BME280;10233;50.814;6.590;2024-01-25T00:47:09;101435.53;;;9.48;100.00
20145;BME280;10233;50.814;6.590;2024-01-25T00:48:10;101439.03;;;9.48;100.00
20145;BME280;10233;50.814;6.590;2024-01-25T00:49:11;101430.41;;;9.46;100.00
20145;BME280;10233;50.814;6.590;2024-01-25T00:50:12;101438.88;;;9.50;100.00
20145;BME280;10233;50.814;6.590;2024-01-25T00:51:15;101450.66;;;9.47;100.00
20145;BME280;10233;50.814;6.590;2024-01-25T00:52:16;101438.03;;;9.49;100.00
20145;BME280;10233;50.814;6.590;2024-01-25T00:53:17;101436.06;;;9.51;100.00
20145;BME280;10233;50.814;6.590;2024-01-25T00:54:18;101437.88;;;9.51;100.00
20145;BME280;10233;50.814;6.590;2024-01-25T00:55:18;101440.69;;;9.49;100.00
20145;BME280;10233;50.814;6.590;2024-01-25T00:56:19;101444.34;;;9.48;100.00
20145;BME280;10233;50.814;6.590;2024-01-25T00:57:20;101448.66;;;9.49;100.00
20145;BME280;10233;50.814;6.590;2024-01-25T00:58:20;101448.00;;;9.47;100.00
20145;BME280;10233;50.814;6.590;2024-01-25T00:59:21;101449.00;;;9.46;100.00
20145;BME280;10233;50.814;6.590;2024-01-25T01:00:22;101456.13;;;9.46;100.00
20145;BME280;10233;50.814;6.590;2024-01-25T01:01:24;101454.13;;;9.48;100.00
20145;BME280;10233;50.814;6.590;2024-01-25T01:02:26;101463.25;;;9.45;100.00
20145;BME280;10233;50.814;6.590;2024-01-25T01:03:31;101459.63;;;9.46;100.00
20145;BME280;10233;50.814;6.590;2024-01-25T01:04:31;101457.28;;;9.43;100.00
20145;BME280;10233;50.814;6.590;2024-01-25T01:05:32;101454.47;;;9.45;100.00
20145;BME280;10233;50.814;6.590;2024-01-25T01:06:33;101454.63;;;9.43;100.00
20145;BME280;10233;50.814;6.590;2024-01-25T01:07:33;101448.47;;;9.43;100.00
20145;BME280;10233;50.814;6.590;2024-01-25T01:08:35;101457.28;;;9.43;100.00
20145;BME280;10233;50.814;6.590;2024-01-25T01:09:36;101455.44;;;9.44;100.00
20145;BME280;10233;50.814;6.590;2024-01-25T01:10:36;101455.78;;;9.41;100.00
20145;BME280;10233;50.814;6.590;2024-01-25T01:11:36;101452.28;;;9.40;100.00
20145;BME280;10233;50.814;6.590;2024-01-25T01:12:37;101464.75;;;9.40;100.00
20145;BME280;10233;50.814;6.590;2024-01-25T01:13:37;101464.25;;;9.44;100.00
20145;BME280;10233;50.814;6.590;2024-01-25T01:14:38;101460.41;;;9.39;100.00
20145;BME280;10233;50.814;6.590;2024-01-25T01:15:38;101467.41;;;9.40;100.00
20145;BME280;10233;50.814;6.590;2024-01-25T01:16:39;101461.41;;;9.38;100.00
20145;BME280;10233;50.814;6.590;2024-01-25T01:17:39;101457.41;;;9.34;100.00
20145;BME280;10233;50.814;6.590;2024-01-25T01:18:39;101465.72;;;9.31;100.00
20145;BME280;10233;50.814;6.590;2024-01-25T01:19:40;101455.25;;;9.29;100.00
20145;BME280;10233;50.814;6.590;2024-01-25T01:20:40;101457.41;;;9.26;100.00
20145;BME280;10233;50.814;6.590;2024-01-25T01:21:41;101457.56;;;9.24;100.00
20145;BME280;10233;50.814;6.590;2024-01-25T01:22:44;101454.59;;;9.27;100.00
20145;BME280;10233;50.814;6.590;2024-01-25T01:23:44;101457.25;;;9.27;100.00
20145;BME280;10233;50.814;6.590;2024-01-25T01:24:44;101460.22;;;9.24;100.00
20145;BME280;10233;50.814;6.590;2024-01-25T01:25:45;101474.66;;;9.22;100.00
20145;BME280;10233;50.814;6.590;2024-01-25T01:26:45;101473.16;;;9.19;100.00
20145;BME280;10233;50.814;6.590;2024-01-25T01:27:46;101463.38;;;9.20;100.00
20145;BME280;10233;50.814;6.590;2024-01-25T01:28:47;101472.50;;;9.17;100.00
20145;BME280;10233;50.814;6.590;2024-01-25T01:29:47;101464.19;;;9.12;100.00
20145;BME280;10233;50.814;6.590;2024-01-25T01:30:48;101467.16;;;9.09;100.00
20145;BME280;10233;50.814;6.590;2024-01-25T01:31:48;101463.50;;;9.10;100.00
20145;BME280;10233;50.814;6.590;2024-01-25T01:32:48;101468.00;;;9.10;100.00
20145;BME280;10233;50.814;6.590;2024-01-25T01:33:49;101465.81;;;9.05;100.00
20145;BME280;10233;50.814;6.590;2024-01-25T01:34:49;101472.28;;;9.03;100.00
20145;BME280;10233;50.814;6.590;2024-01-25T01:35:50;101480.06;;;9.04;100.00
20145;BME280;10233;50.814;6.590;2024-01-25T01:36:50;101477.56;;;9.03;100.00
20145;BME280;10233;50.814;6.590;2024-01-25T01:37:51;101482.38;;;8.99;100.00
20145;BME280;10233;50.814;6.590;2024-01-25T01:38:51;101477.06;;;8.99;100.00
20145;BME280;10233;50.814;6.590;2024-01-25T01:39:51;101475.25;;;9.00;100.00
20145;BME280;10233;50.814;6.590;2024-01-25T01:40:53;101468.13;;;9.00;100.00
20145;BME280;10233;50.814;6.590;2024-01-25T01:41:53;101481.03;;;8.95;100.00
20145;BME280;10233;50.814;6.590;2024-01-25T01:42:59;101476.03;;;8.92;100.00
20145;BME280;10233;50.814;6.590;2024-01-25T01:44:00;101478.22;;;8.97;100.00
20145;BME280;10233;50.814;6.590;2024-01-25T01:45:01;101478.69;;;8.92;100.00
20145;BME280;10233;50.814;6.590;2024-01-25T01:46:06;101472.72;;;8.90;100.00
20145;BME280;10233;50.814;6.590;2024-01-25T01:47:10;101480.34;;;8.85;100.00
20145;BME280;10233;50.814;6.590;2024-01-25T01:48:10;101478.69;;;8.84;100.00
20145;BME280;10233;50.814;6.590;2024-01-25T01:49:12;101487.63;;;8.83;100.00
20145;BME280;10233;50.814;6.590;2024-01-25T01:50:13;101491.25;;;8.82;100.00
20145;BME280;10233;50.814;6.590;2024-01-25T01:51:13;101493.25;;;8.80;100.00
20145;BME280;10233;50.814;6.590;2024-01-25T01:52:14;101488.94;;;8.87;100.00
20145;BME280;10233;50.814;6.590;2024-01-25T01:53:15;101486.78;;;8.83;100.00
20145;BME280;10233;50.814;6.590;2024-01-25T01:54:15;101491.44;;;8.81;100.00
20145;BME280;10233;50.814;6.590;2024-01-25T01:55:17;101480.66;;;8.82;100.00
20145;BME280;10233;50.814;6.590;2024-01-25T01:56:18;101478.50;;;8.78;100.00
20145;BME280;10233;50.814;6.590;2024-01-25T01:57:18;101477.63;;;8.77;100.00
20145;BME280;10233;50.814;6.590;2024-01-25T01:58:20;101480.47;;;8.76;100.00
20145;BME280;10233;50.814;6.590;2024-01-25T01:59:21;101478.28;;;8.71;100.00
20145;BME280;10233;50.814;6.590;2024-01-25T02:00:22;101480.28;;;8.69;100.00
20145;BME280;10233;50.814;6.590;2024-01-25T02:01:24;101483.59;;;8.71;100.00
20145;BME280;10233;50.814;6.590;2024-01-25T02:02:26;101475.78;;;8.70;100.00
20145;BME280;10233;50.814;6.590;2024-01-25T02:03:27;101478.63;;;8.68;100.00
20145;BME280;10233;50.814;6.590;2024-01-25T02:04:27;101489.22;;;8.68;100.00
20145;BME280;10233;50.814;6.590;2024-01-25T02:05:28;101485.09;;;8.74;100.00
20145;BME280;10233;50.814;6.590;2024-01-25T02:06:28;101474.63;;;8.72;100.00
20145;BME280;10233;50.814;6.590;2024-01-25T02:07:30;101478.28;;;8.71;100.00
20145;BME280;10233;50.814;6.590;2024-01-25T02:08:31;101482.94;;;8.77;100.00
20145;BME280;10233;50.814;6.590;2024-01-25T02:09:31;101483.78;;;8.78;100.00
20145;BME280;10233;50.814;6.590;2024-01-25T02:10:32;101481.63;;;8.81;100.00
20145;BME280;10233;50.814;6.590;2024-01-25T02:11:32;101492.09;;;8.83;100.00
20145;BME280;10233;50.814;6.590;2024-01-25T02:12:32;101486.94;;;8.81;100.00
20145;BME280;10233;50.814;6.590;2024-01-25T02:13:33;101488.94;;;8.79;100.00
20145;BME280;10233;50.814;6.590;2024-01-25T02:14:33;101486.94;;;8.81;100.00
20145;BME280;10233;50.814;6.590;2024-01-25T02:15:34;101490.94;;;8.85;100.00
20145;BME280;10233;50.814;6.590;2024-01-25T02:16:34;101490.94;;;8.85;100.00
20145;BME280;10233;50.814;6.590;2024-01-25T02:17:35;101495.25;;;8.86;100.00
20145;BME280;10233;50.814;6.590;2024-01-25T02:18:36;101498.41;;;8.82;100.00
20145;BME280;10233;50.814;6.590;2024-01-25T02:19:36;101499.53;;;8.79;100.00
20145;BME280;10233;50.814;6.590;2024-01-25T02:20:37;101498.41;;;8.82;100.00
20145;BME280;10233;50.814;6.590;2024-01-25T02:21:37;101506.44;;;8.72;100.00
20145;BME280;10233;50.814;6.590;2024-01-25T02:22:38;101511.09;;;8.70;100.00
20145;BME280;10233;50.814;6.590;2024-01-25T02:23:38;101504.94;;;8.70;100.00
20145;BME280;10233;50.814;6.590;2024-01-25T02:24:38;101516.84;;;8.66;100.00
20145;BME280;10233;50.814;6.590;2024-01-25T02:25:39;101505.75;;;8.62;100.00
20145;BME280;10233;50.814;6.590;2024-01-25T02:26:39;101511.19;;;8.61;100.00
20145;BME280;10233;50.814;6.590;2024-01-25T02:27:40;101502.09;;;8.63;100.00
20145;BME280;10233;50.814;6.590;2024-01-25T02:28:40;101511.88;;;8.63;100.00
20145;BME280;10233;50.814;6.590;2024-01-25T02:29:41;101521.50;;;8.64;100.00
20145;BME280;10233;50.814;6.590;2024-01-25T02:30:41;101511.19;;;8.61;100.00
20145;BME280;10233;50.814;6.590;2024-01-25T02:31:41;101515.00;;;8.58;100.00
20145;BME280;10233;50.814;6.590;2024-01-25T02:32:45;101509.03;;;8.56;100.00
20145;BME280;10233;50.814;6.590;2024-01-25T02:33:45;101509.88;;;8.57;100.00
20145;BME280;10233;50.814;6.590;2024-01-25T02:34:46;101509.38;;;8.61;100.00
20145;BME280;10233;50.814;6.590;2024-01-25T02:35:46;101517.28;;;8.53;100.00
20145;BME280;10233;50.814;6.590;2024-01-25T02:36:47;101519.94;;;8.53;100.00
20145;BME280;10233;50.814;6.590;2024-01-25T02:37:47;101530.72;;;8.52;100.00
20145;BME280;10233;50.814;6.590;2024-01-25T02:38:48;101526.56;;;8.49;100.00
20145;BME280;10233;50.814;6.590;2024-01-25T02:39:50;101526.06;;;8.54;100.00
20145;BME280;10233;50.814;6.590;2024-01-25T02:40:50;101525.41;;;8.52;100.00
20145;BME280;10233;50.814;6.590;2024-01-25T02:41:51;101526.72;;;8.56;100.00
20145;BME280;10233;50.814;6.590;2024-01-25T02:42:51;101522.28;;;8.56;100.00
20145;BME280;10233;50.814;6.590;2024-01-25T02:43:52;101530.53;;;8.53;100.00
20145;BME280;10233;50.814;6.590;2024-01-25T02:44:52;101541.13;;;8.53;100.00
20145;BME280;10233;50.814;6.590;2024-01-25T02:45:53;101537.53;;;8.54;100.00
20145;BME280;10233;50.814;6.590;2024-01-25T02:46:53;101535.81;;;8.53;100.00
20145;BME280;10233;50.814;6.590;2024-01-25T02:47:54;101542.81;;;8.54;100.00
20145;BME280;10233;50.814;6.590;2024-01-25T02:48:54;101533.19;;;8.53;100.00
20145;BME280;10233;50.814;6.590;2024-01-25T02:49:54;101535.03;;;8.53;100.00
20145;BME280;10233;50.814;6.590;2024-01-25T02:50:55;101537.97;;;8.50;100.00
20145;BME280;10233;50.814;6.590;2024-01-25T02:51:55;101537.66;;;8.53;100.00
20145;BME280;10233;50.814;6.590;2024-01-25T02:52:56;101534.66;;;8.48;100.00
20145;BME280;10233;50.814;6.590;2024-01-25T02:53:57;101537.75;;;8.43;100.00
20145;BME280;10233;50.814;6.590;2024-01-25T02:54:57;101541.41;;;8.42;100.00
20145;BME280;10233;50.814;6.590;2024-01-25T02:55:57;101540.59;;;8.42;100.00
20145;BME280;10233;50.814;6.590;2024-01-25T02:56:58;101543.38;;;8.40;100.00
20145;BME280;10233;50.814;6.590;2024-01-25T02:57:58;101545.88;;;8.42;100.00
20145;BME280;10233;50.814;6.590;2024-01-25T02:58:59;101540.03;;;8.38;100.00
20145;BME280;10233;50.814;6.590;2024-01-25T03:00:02;101538.72;;;8.34;100.00
20145;BME280;10233;50.814;6.590;2024-01-25T03:01:03;101539.69;;;8.33;100.00
20145;BME280;10233;50.814;6.590;2024-01-25T03:02:04;101552.13;;;8.33;100.00
20145;BME280;10233;50.814;6.590;2024-01-25T03:03:07;101555.91;;;8.30;100.00
20145;BME280;10233;50.814;6.590;2024-01-25T03:04:14;101555.41;;;8.35;100.00
20145;BME280;10233;50.814;6.590;2024-01-25T03:05:20;101552.41;;;8.30;100.00
20145;BME280;10233;50.814;6.590;2024-01-25T03:06:21;101549.59;;;8.31;100.00
20145;BME280;10233;50.814;6.590;2024-01-25T03:07:21;101551.59;;;8.29;100.00
20145;BME280;10233;50.814;6.590;2024-01-25T03:08:21;101558.56;;;8.30;100.00
20145;BME280;10233;50.814;6.590;2024-01-25T03:09:22;101563.84;;;8.30;100.00
20145;BME280;10233;50.814;6.590;2024-01-25T03:10:23;101553.69;;;8.26;100.00
20145;BME280;10233;50.814;6.590;2024-01-25T03:11:24;101559.69;;;8.28;100.00
20145;BME280;10233;50.814;6.590;2024-01-25T03:12:24;101556.50;;;8.24;100.00
20145;BME280;10233;50.814;6.590;2024-01-25T03:13:25;101558.19;;;8.25;100.00
20145;BME280;10233;50.814;6.590;2024-01-25T03:14:25;101553.84;;;8.24;100.00
20145;BME280;10233;50.814;6.590;2024-01-25T03:15:26;101552.69;;;8.27;100.00
20145;BME280;10233;50.814;6.590;2024-01-25T03:16:26;101557.19;;;8.26;100.00
20145;BME280;10233;50.814;6.590;2024-01-25T03:17:26;101562.34;;;8.28;100.00
20145;BME280;10233;50.814;6.590;2024-01-25T03:18:27;101559.97;;;8.25;100.00
20145;BME280;10233;50.814;6.590;2024-01-25T03:19:28;101566.13;;;8.25;100.00
20145;BME280;10233;50.814;6.590;2024-01-25T03:20:28;101567.53;;;8.20;100.00
20145;BME280;10233;50.814;6.590;2024-01-25T03:21:29;101553.84;;;8.24;100.00
20145;BME280;10233;50.814;6.590;2024-01-25T03:22:29;101553.31;;;8.21;100.00
20145;BME280;10233;50.814;6.590;2024-01-25T03:23:29;101548.88;;;8.21;100.00
20145;BME280;10233;50.814;6.590;2024-01-25T03:24:30;101550.53;;;8.22;100.00
20145;BME280;10233;50.814;6.590;2024-01-25T03:25:30;101557.47;;;8.23;100.00
20145;BME280;10233;50.814;6.590;2024-01-25T03:26:31;101559.47;;;8.21;100.00
20145;BME280;10233;50.814;6.590;2024-01-25T03:27:32;101555.69;;;8.24;100.00
20145;BME280;10233;50.814;6.590;2024-01-25T03:28:35;101565.28;;;8.25;100.00
20145;BME280;10233;50.814;6.590;2024-01-25T03:29:36;101557.84;;;8.28;100.00
20145;BME280;10233;50.814;6.590;2024-01-25T03:30:36;101559.34;;;8.31;100.00
20145;BME280;10233;50.814;6.590;2024-01-25T03:31:37;101561.88;;;8.32;100.00
20145;BME280;10233;50.814;6.590;2024-01-25T03:32:37;101554.28;;;8.37;100.00
20145;BME280;10233;50.814;6.590;2024-01-25T03:33:38;101558.28;;;8.41;100.00
20145;BME280;10233;50.814;6.590;2024-01-25T03:34:38;101563.59;;;8.41;100.00
20145;BME280;10233;50.814;6.590;2024-01-25T03:35:39;101551.84;;;8.44;100.00
20145;BME280;10233;50.814;6.590;2024-01-25T03:36:42;101549.72;;;8.47;100.00
20145;BME280;10233;50.814;6.590;2024-01-25T03:37:43;101542.75;;;8.46;100.00
20145;BME280;10233;50.814;6.590;2024-01-25T03:38:43;101536.78;;;8.44;100.00
20145;BME280;10233;50.814;6.590;2024-01-25T03:39:43;101537.47;;;8.46;100.00
20145;BME280;10233;50.814;6.590;2024-01-25T03:40:44;101534.50;;;8.49;100.00
20145;BME280;10233;50.814;6.590;2024-01-25T03:41:44;101536.81;;;8.52;100.00
20145;BME280;10233;50.814;6.590;2024-01-25T03:42:45;101530.88;;;8.50;100.00
20145;BME280;10233;50.814;6.590;2024-01-25T03:43:46;101528.22;;;8.50;100.00
20145;BME280;10233;50.814;6.590;2024-01-25T03:44:46;101539.31;;;8.54;100.00
20145;BME280;10233;50.814;6.590;2024-01-25T03:45:47;101533.38;;;8.52;100.00
20145;BME280;10233;50.814;6.590;2024-01-25T03:46:47;101537.66;;;8.53;100.00
20145;BME280;10233;50.814;6.590;2024-01-25T03:47:48;101536.47;;;8.47;100.00
20145;BME280;10233;50.814;6.590;2024-01-25T03:48:48;101530.03;;;8.50;100.00
20145;BME280;10233;50.814;6.590;2024-01-25T03:49:49;101530.72;;;8.52;100.00
20145;BME280;10233;50.814;6.590;2024-01-25T03:50:49;101529.34;;;8.48;100.00
20145;BME280;10233;50.814;6.590;2024-01-25T03:51:50;101529.81;;;8.43;100.00
20145;BME280;10233;50.814;6.590;2024-01-25T03:52:50;101533.44;;;8.42;100.00
20145;BME280;10233;50.814;6.590;2024-01-25T03:53:50;101530.00;;;8.42;100.00
20145;BME280;10233;50.814;6.590;2024-01-25T03:54:53;101532.78;;;8.40;100.00
20145;BME280;10233;50.814;6.590;2024-01-25T03:55:53;101532.44;;;8.43;100.00
20145;BME280;10233;50.814;6.590;2024-01-25T03:56:53;101530.50;;;8.45;100.00
20145;BME280;10233;50.814;6.590;2024-01-25T03:57:54;101533.50;;;8.50;100.00
20145;BME280;10233;50.814;6.590;2024-01-25T03:58:54;101525.19;;;8.45;100.00
20145;BME280;10233;50.814;6.590;2024-01-25T03:59:55;101525.19;;;8.45;100.00
20145;BME280;10233;50.814;6.590;2024-01-25T04:00:55;101526.19;;;8.44;100.00
20145;BME280;10233;50.814;6.590;2024-01-25T04:01:55;101524.34;;;8.45;100.00
20145;BME280;10233;50.814;6.590;2024-01-25T04:02:56;101533.44;;;8.42;100.00
20145;BME280;10233;50.814;6.590;2024-01-25T04:03:56;101540.94;;;8.47;100.00
20145;BME280;10233;50.814;6.590;2024-01-25T04:04:57;101535.81;;;8.45;100.00
20145;BME280;10233;50.814;6.590;2024-01-25T04:05:57;101542.09;;;8.44;100.00
20145;BME280;10233;50.814;6.590;2024-01-25T04:06:57;101539.09;;;8.47;100.00
20145;BME280;10233;50.814;6.590;2024-01-25T04:07:58;101540.09;;;8.46;100.00
20145;BME280;10233;50.814;6.590;2024-01-25T04:08:58;101541.09;;;8.45;100.00
20145;BME280;10233;50.814;6.590;2024-01-25T04:09:59;101549.81;;;8.38;100.00
20145;BME280;10233;50.814;6.590;2024-01-25T04:10:59;101548.31;;;8.35;100.00
20145;BME280;10233;50.814;6.590;2024-01-25T04:12:00;101545.81;;;8.34;100.00
20145;BME280;10233;50.814;6.590;2024-01-25T04:13:00;101544.53;;;8.38;100.00
20145;BME280;10233;50.814;6.590;2024-01-25T04:14:01;101545.81;;;8.34;100.00
20145;BME280;10233;50.814;6.590;2024-01-25T04:15:02;101546.28;;;8.29;100.00
20145;BME280;10233;50.814;6.590;2024-01-25T04:16:03;101539.94;;;8.22;100.00
20145;BME280;10233;50.814;6.590;2024-01-25T04:17:04;101545.81;;;8.16;100.00
20145;BME280;10233;50.814;6.590;2024-01-25T04:18:04;101539.53;;;8.17;100.00
20145;BME280;10233;50.814;6.590;2024-01-25T04:19:05;101542.66;;;8.13;100.00
20145;BME280;10233;50.814;6.590;2024-01-25T04:20:06;101545.59;;;8.10;100.00
20145;BME280;10233;50.814;6.590;2024-01-25T04:21:06;101549.38;;;8.07;100.00
20145;BME280;10233;50.814;6.590;2024-01-25T04:22:07;101549.53;;;8.06;100.00
20145;BME280;10233;50.814;6.590;2024-01-25T04:23:07;101550.66;;;8.03;100.00
20145;BME280;10233;50.814;6.590;2024-01-25T04:24:08;101554.94;;;7.96;100.00
20145;BME280;10233;50.814;6.590;2024-01-25T04:25:08;101556.44;;;7.99;100.00
20145;BME280;10233;50.814;6.590;2024-01-25T04:26:09;101561.88;;;7.97;100.00
20145;BME280;10233;50.814;6.590;2024-01-25T04:27:10;101559.38;;;7.96;100.00
20145;BME280;10233;50.814;6.590;2024-01-25T04:28:10;101562.19;;;7.94;100.00
20145;BME280;10233;50.814;6.590;2024-01-25T04:29:11;101560.66;;;7.92;100.00
20145;BME280;10233;50.814;6.590;2024-01-25T04:30:11;101568.47;;;7.93;100.00
20145;BME280;10233;50.814;6.590;2024-01-25T04:31:12;101561.50;;;7.92;100.00
20145;BME280;10233;50.814;6.590;2024-01-25T04:32:12;101560.84;;;7.90;100.00
20145;BME280;10233;50.814;6.590;2024-01-25T04:33:13;101558.63;;;7.86;100.00
20145;BME280;10233;50.814;6.590;2024-01-25T04:34:14;101556.28;;;7.83;100.00
20145;BME280;10233;50.814;6.590;2024-01-25T04:35:14;101562.25;;;7.85;100.00
20145;BME280;10233;50.814;6.590;2024-01-25T04:36:15;101565.91;;;7.84;100.00
20145;BME280;10233;50.814;6.590;2024-01-25T04:37:16;101563.53;;;7.81;100.00
20145;BME280;10233;50.814;6.590;2024-01-25T04:38:16;101560.38;;;7.77;100.00
20145;BME280;10233;50.814;6.590;2024-01-25T04:39:16;101569.31;;;7.76;100.00
20145;BME280;10233;50.814;6.590;2024-01-25T04:40:17;101562.19;;;7.77;100.00
20145;BME280;10233;50.814;6.590;2024-01-25T04:41:17;101565.16;;;7.74;100.00
20145;BME280;10233;50.814;6.590;2024-01-25T04:42:18;101559.38;;;7.78;100.00
20145;BME280;10233;50.814;6.590;2024-01-25T04:43:18;101558.16;;;7.73;100.00
20145;BME280;10233;50.814;6.590;2024-01-25T04:44:19;101555.00;;;7.69;100.00
20145;BME280;10233;50.814;6.590;2024-01-25T04:45:19;101556.13;;;7.67;100.00
20145;BME280;10233;50.814;6.590;2024-01-25T04:46:20;101555.13;;;7.68;100.00
20145;BME280;10233;50.814;6.590;2024-01-25T04:47:20;101565.97;;;7.74;100.00
20145;BME280;10233;50.814;6.590;2024-01-25T04:48:20;101566.41;;;7.70;100.00
20145;BME280;10233;50.814;6.590;2024-01-25T04:49:21;101563.63;;;7.71;100.00
20145;BME280;10233;50.814;6.590;2024-01-25T04:50:21;101569.50;;;7.65;100.00
20145;BME280;10233;50.814;6.590;2024-01-25T04:51:22;101570.81;;;7.61;100.00
20145;BME280;10233;50.814;6.590;2024-01-25T04:52:23;101574.41;;;7.60;100.00
20145;BME280;10233;50.814;6.590;2024-01-25T04:53:23;101576.09;;;7.61;100.00
20145;BME280;10233;50.814;6.590;2024-01-25T04:54:24;101579.69;;;7.60;100.00
20145;BME280;10233;50.814;6.590;2024-01-25T04:55:24;101585.22;;;7.67;100.00
20145;BME280;10233;50.814;6.590;2024-01-25T04:56:25;101584.56;;;7.65;100.00
20145;BME280;10233;50.814;6.590;2024-01-25T04:57:25;101581.38;;;7.61;100.00
20145;BME280;10233;50.814;6.590;2024-01-25T04:58:25;101591.00;;;7.62;100.00
20145;BME280;10233;50.814;6.590;2024-01-25T04:59:26;101588.09;;;7.56;100.00
20145;BME280;10233;50.814;6.590;2024-01-25T05:00:26;101590.06;;;7.54;100.00
20145;BME280;10233;50.814;6.590;2024-01-25T05:01:27;101592.16;;;7.50;100.00
20145;BME280;10233;50.814;6.590;2024-01-25T05:02:27;101588.25;;;7.54;100.00
20145;BME280;10233;50.814;6.590;2024-01-25T05:03:28;101592.16;;;7.50;100.00
20145;BME280;10233;50.814;6.590;2024-01-25T05:04:28;101584.78;;;7.54;100.00
20145;BME280;10233;50.814;6.590;2024-01-25T05:05:29;101590.38;;;7.51;100.00
20145;BME280;10233;50.814;6.590;2024-01-25T05:06:29;101584.53;;;7.47;100.00
20145;BME280;10233;50.814;6.590;2024-01-25T05:07:30;101587.19;;;7.47;100.00
20145;BME280;10233;50.814;6.590;2024-01-25T05:08:30;101590.13;;;7.44;100.00
20145;BME280;10233;50.814;6.590;2024-01-25T05:09:31;101580.38;;;7.45;100.00
20145;BME280;10233;50.814;6.590;2024-01-25T05:10:31;101584.41;;;7.49;100.00
20145;BME280;10233;50.814;6.590;2024-01-25T05:11:32;101583.44;;;7.40;100.00
20145;BME280;10233;50.814;6.590;2024-01-25T05:12:32;101581.34;;;7.44;100.00
20145;BME280;10233;50.814;6.590;2024-01-25T05:13:33;101579.81;;;7.41;100.00
20145;BME280;10233;50.814;6.590;2024-01-25T05:14:33;101580.81;;;7.40;100.00
20145;BME280;10233;50.814;6.590;2024-01-25T05:15:33;101586.09;;;7.40;100.00
20145;BME280;10233;50.814;6.590;2024-01-25T05:16:34;101582.47;;;7.41;100.00
20145;BME280;10233;50.814;6.590;2024-01-25T05:17:35;101578.41;;;7.47;100.00